Terminal Aerodrome Forecast
Issued by NWS

Home | Current Version | Previous Version | Text Only | Print | Product List | Glossary On
Versions: 1 2 3 4 5 6 7 8 9 10 11 12 13 14
000
FTUS42 TJSJ 021923 AAA
TAFJBQ
TAF AMD
TJBQ 021923Z 0219/0318 07010KT P6SM VCSH SCT020 SCT050
      TEMPO 0219/0221 VRB10KT 5SM -SHRA BKN020
     FM022300 10007KT P6SM SCT040 BKN070
     FM031300 06010KT P6SM SCT030
      AMD NOT SKED 0302/0311=

USA.gov is the U.S. government's official web portal to all federal, state and local government web resources and services.